sensor_id;sensor_type;location;lat;lon;timestamp;pressure;altitude;pressure_sealevel;temperature;humidity
64889;BME280;51386;53.082;8.816;2023-04-06T00:01:04;101906.78;;;10.98;43.20
64889;BME280;51386;53.082;8.816;2023-04-06T00:03:31;101900.84;;;10.96;43.21
64889;BME280;51386;53.082;8.816;2023-04-06T00:05:58;101912.34;;;10.95;42.58
64889;BME280;51386;53.082;8.816;2023-04-06T00:08:27;101901.81;;;10.95;42.62
64889;BME280;51386;53.082;8.816;2023-04-06T00:10:54;101897.50;;;10.94;42.73
64889;BME280;51386;53.082;8.816;2023-04-06T00:13:21;101902.94;;;10.92;43.06
64889;BME280;51386;53.082;8.816;2023-04-06T00:15:48;101907.69;;;10.88;43.13
64889;BME280;51386;53.082;8.816;2023-04-06T00:18:15;101894.94;;;10.84;42.80
64889;BME280;51386;53.082;8.816;2023-04-06T00:20:42;101892.75;;;10.79;43.52
64889;BME280;51386;53.082;8.816;2023-04-06T00:23:09;101893.88;;;10.77;43.22
64889;BME280;51386;53.082;8.816;2023-04-06T00:25:37;101888.91;;;10.74;43.31
64889;BME280;51386;53.082;8.816;2023-04-06T00:28:04;101888.38;;;10.70;43.40
64889;BME280;51386;53.082;8.816;2023-04-06T00:30:31;101884.38;;;10.66;43.95
64889;BME280;51386;53.082;8.816;2023-04-06T00:32:58;101885.66;;;10.62;43.90
64889;BME280;51386;53.082;8.816;2023-04-06T00:35:25;101882.31;;;10.60;43.44
64889;BME280;51386;53.082;8.816;2023-04-06T00:37:52;101884.41;;;10.57;43.81
64889;BME280;51386;53.082;8.816;2023-04-06T00:40:19;101878.59;;;10.53;43.72
64889;BME280;51386;53.082;8.816;2023-04-06T00:42:48;101871.16;;;10.49;43.68
64889;BME280;51386;53.082;8.816;2023-04-06T00:45:15;101875.06;;;10.45;43.79
64889;BME280;51386;53.082;8.816;2023-04-06T00:47:42;101875.50;;;10.40;44.09
64889;BME280;51386;53.082;8.816;2023-04-06T00:50:09;101874.13;;;10.36;44.46
64889;BME280;51386;53.082;8.816;2023-04-06T00:52:36;101875.38;;;10.32;44.13
64889;BME280;51386;53.082;8.816;2023-04-06T00:55:04;101870.44;;;10.29;44.75
64889;BME280;51386;53.082;8.816;2023-04-06T00:57:32;101873.06;;;10.29;45.05
64889;BME280;51386;53.082;8.816;2023-04-06T01:00:00;101870.44;;;10.29;44.38
64889;BME280;51386;53.082;8.816;2023-04-06T01:02:27;101866.69;;;10.32;44.80
64889;BME280;51386;53.082;8.816;2023-04-06T01:04:54;101856.97;;;10.32;44.74
64889;BME280;51386;53.082;8.816;2023-04-06T01:07:22;101867.66;;;10.31;44.19
64889;BME280;51386;53.082;8.816;2023-04-06T01:09:48;101868.59;;;10.30;44.61
64889;BME280;51386;53.082;8.816;2023-04-06T01:12:16;101854.25;;;10.24;44.23
64889;BME280;51386;53.082;8.816;2023-04-06T01:14:43;101851.91;;;10.21;44.14
64889;BME280;51386;53.082;8.816;2023-04-06T01:17:12;101851.50;;;10.16;44.53
64889;BME280;51386;53.082;8.816;2023-04-06T01:19:39;101850.38;;;10.09;44.82
64889;BME280;51386;53.082;8.816;2023-04-06T01:22:07;101851.66;;;10.05;45.04
64889;BME280;51386;53.082;8.816;2023-04-06T01:24:35;101854.56;;;10.02;44.83
64889;BME280;51386;53.082;8.816;2023-04-06T01:27:02;101849.56;;;9.99;45.13
64889;BME280;51386;53.082;8.816;2023-04-06T01:29:29;101844.63;;;9.96;45.11
64889;BME280;51386;53.082;8.816;2023-04-06T01:31:57;101851.81;;;9.94;45.11
64889;BME280;51386;53.082;8.816;2023-04-06T01:34:26;101848.50;;;9.92;45.16
64889;BME280;51386;53.082;8.816;2023-04-06T01:36:53;101836.34;;;9.91;45.33
64889;BME280;51386;53.082;8.816;2023-04-06T01:39:20;101837.97;;;9.92;44.78
64889;BME280;51386;53.082;8.816;2023-04-06T01:41:48;101843.91;;;9.94;45.15
64889;BME280;51386;53.082;8.816;2023-04-06T01:44:17;101843.91;;;9.94;44.68
64889;BME280;51386;53.082;8.816;2023-04-06T01:46:45;101841.59;;;9.91;45.12
64889;BME280;51386;53.082;8.816;2023-04-06T01:49:12;101834.66;;;9.90;44.49
64889;BME280;51386;53.082;8.816;2023-04-06T01:51:39;101841.88;;;9.88;44.83
64889;BME280;51386;53.082;8.816;2023-04-06T01:54:06;101831.63;;;9.85;44.90
64889;BME280;51386;53.082;8.816;2023-04-06T01:56:33;101823.34;;;9.80;45.21
64889;BME280;51386;53.082;8.816;2023-04-06T01:59:02;101825.28;;;9.78;44.87
64889;BME280;51386;53.082;8.816;2023-04-06T02:01:29;101825.56;;;9.75;45.10
64889;BME280;51386;53.082;8.816;2023-04-06T02:03:56;101828.91;;;9.77;45.46
64889;BME280;51386;53.082;8.816;2023-04-06T02:06:23;101821.69;;;9.79;45.05
64889;BME280;51386;53.082;8.816;2023-04-06T02:08:50;101817.28;;;9.79;45.04
64889;BME280;51386;53.082;8.816;2023-04-06T02:11:17;101811.19;;;9.79;44.87
64889;BME280;51386;53.082;8.816;2023-04-06T02:13:44;101814.78;;;9.78;44.43
64889;BME280;51386;53.082;8.816;2023-04-06T02:16:12;101813.41;;;9.74;44.48
64889;BME280;51386;53.082;8.816;2023-04-06T02:18:39;101806.78;;;9.70;44.57
64889;BME280;51386;53.082;8.816;2023-04-06T02:21:06;101804.28;;;9.68;44.45
64889;BME280;51386;53.082;8.816;2023-04-06T02:23:33;101808.00;;;9.66;44.50
64889;BME280;51386;53.082;8.816;2023-04-06T02:26:00;101807.59;;;9.61;44.44
64889;BME280;51386;53.082;8.816;2023-04-06T02:28:27;101810.53;;;9.58;44.33
64889;BME280;51386;53.082;8.816;2023-04-06T02:30:54;101810.81;;;9.54;44.26
64889;BME280;51386;53.082;8.816;2023-04-06T02:33:22;101807.50;;;9.52;44.86
64889;BME280;51386;53.082;8.816;2023-04-06T02:35:49;101808.19;;;9.54;44.59
64889;BME280;51386;53.082;8.816;2023-04-06T02:38:16;101808.19;;;9.54;44.54
64889;BME280;51386;53.082;8.816;2023-04-06T02:40:43;101802.09;;;9.54;44.46
64889;BME280;51386;53.082;8.816;2023-04-06T02:43:10;101798.78;;;9.52;44.03
64889;BME280;51386;53.082;8.816;2023-04-06T02:45:37;101803.47;;;9.48;43.88
64889;BME280;51386;53.082;8.816;2023-04-06T02:48:05;101801.84;;;9.47;44.15
64889;BME280;51386;53.082;8.816;2023-04-06T02:50:33;101798.53;;;9.45;43.85
64889;BME280;51386;53.082;8.816;2023-04-06T02:53:00;101800.47;;;9.43;44.00
64889;BME280;51386;53.082;8.816;2023-04-06T02:55:27;101797.97;;;9.42;43.73
64889;BME280;51386;53.082;8.816;2023-04-06T02:57:54;101798.81;;;9.42;43.53
64889;BME280;51386;53.082;8.816;2023-04-06T03:00:21;101792.88;;;9.40;43.40
64889;BME280;51386;53.082;8.816;2023-04-06T03:02:48;101788.56;;;9.39;43.12
64889;BME280;51386;53.082;8.816;2023-04-06T03:05:15;101792.88;;;9.40;43.31
64889;BME280;51386;53.082;8.816;2023-04-06T03:07:44;101790.09;;;9.42;43.26
64889;BME280;51386;53.082;8.816;2023-04-06T03:10:11;101788.13;;;9.44;43.13
64889;BME280;51386;53.082;8.816;2023-04-06T03:12:38;101783.72;;;9.44;42.66
64889;BME280;51386;53.082;8.816;2023-04-06T03:15:06;101781.09;;;9.44;42.76
64889;BME280;51386;53.082;8.816;2023-04-06T03:17:34;101782.22;;;9.42;42.66
64889;BME280;51386;53.082;8.816;2023-04-06T03:20:01;101779.72;;;9.40;42.35
64889;BME280;51386;53.082;8.816;2023-04-06T03:22:29;101779.84;;;9.39;42.03
64889;BME280;51386;53.082;8.816;2023-04-06T03:24:57;101777.53;;;9.36;42.12
64889;BME280;51386;53.082;8.816;2023-04-06T03:27:24;101782.22;;;9.32;41.78
64889;BME280;51386;53.082;8.816;2023-04-06T03:29:51;101785.16;;;9.29;41.96
64889;BME280;51386;53.082;8.816;2023-04-06T03:32:18;101784.44;;;9.27;41.75
64889;BME280;51386;53.082;8.816;2023-04-06T03:34:45;101785.28;;;9.18;41.75
64889;BME280;51386;53.082;8.816;2023-04-06T03:37:12;101771.72;;;9.13;41.82
64889;BME280;51386;53.082;8.816;2023-04-06T03:39:39;101776.19;;;9.13;41.76
64889;BME280;51386;53.082;8.816;2023-04-06T03:42:08;101779.91;;;9.10;41.87
64889;BME280;51386;53.082;8.816;2023-04-06T03:44:36;101779.91;;;9.10;41.45
64889;BME280;51386;53.082;8.816;2023-04-06T03:47:03;101784.19;;;9.11;41.48
64889;BME280;51386;53.082;8.816;2023-04-06T03:49:30;101779.63;;;9.13;41.30
64889;BME280;51386;53.082;8.816;2023-04-06T03:51:58;101775.03;;;9.15;41.55
64889;BME280;51386;53.082;8.816;2023-04-06T03:54:25;101782.81;;;9.17;41.53
64889;BME280;51386;53.082;8.816;2023-04-06T03:56:52;101779.19;;;9.18;41.40
64889;BME280;51386;53.082;8.816;2023-04-06T03:59:20;101785.28;;;9.18;41.41
64889;BME280;51386;53.082;8.816;2023-04-06T04:01:47;101777.56;;;9.17;41.72
64889;BME280;51386;53.082;8.816;2023-04-06T04:04:14;101782.94;;;9.15;42.06
64889;BME280;51386;53.082;8.816;2023-04-06T04:06:41;101775.34;;;9.12;41.98
64889;BME280;51386;53.082;8.816;2023-04-06T04:09:08;101783.22;;;9.12;42.11
64889;BME280;51386;53.082;8.816;2023-04-06T04:11:35;101783.22;;;9.12;41.97
64889;BME280;51386;53.082;8.816;2023-04-06T04:14:02;101784.19;;;9.11;41.78
64889;BME280;51386;53.082;8.816;2023-04-06T04:16:31;101781.81;;;9.08;42.29
64889;BME280;51386;53.082;8.816;2023-04-06T04:18:58;101793.31;;;9.07;41.88
64889;BME280;51386;53.082;8.816;2023-04-06T04:21:25;101795.25;;;9.05;41.53
64889;BME280;51386;53.082;8.816;2023-04-06T04:23:52;101792.91;;;9.02;41.79
64889;BME280;51386;53.082;8.816;2023-04-06T04:26:19;101791.22;;;9.01;41.92
64889;BME280;51386;53.082;8.816;2023-04-06T04:28:46;101794.84;;;9.00;41.77
64889;BME280;51386;53.082;8.816;2023-04-06T04:31:13;101795.78;;;8.99;41.44
64889;BME280;51386;53.082;8.816;2023-04-06T04:33:41;101789.16;;;8.95;41.53
64889;BME280;51386;53.082;8.816;2023-04-06T04:36:08;101785.16;;;8.91;41.58
64889;BME280;51386;53.082;8.816;2023-04-06T04:38:36;101792.47;;;8.88;41.58
64889;BME280;51386;53.082;8.816;2023-04-06T04:41:03;101785.69;;;8.85;41.37
64889;BME280;51386;53.082;8.816;2023-04-06T04:43:31;101787.50;;;8.84;41.63
64889;BME280;51386;53.082;8.816;2023-04-06T04:45:58;101785.00;;;8.83;41.33
64889;BME280;51386;53.082;8.816;2023-04-06T04:48:26;101788.59;;;8.82;41.53
64889;BME280;51386;53.082;8.816;2023-04-06T04:50:54;101790.25;;;8.83;41.48
64889;BME280;51386;53.082;8.816;2023-04-06T04:53:22;101792.06;;;8.82;41.43
64889;BME280;51386;53.082;8.816;2023-04-06T04:55:53;101790.25;;;8.83;41.06
64889;BME280;51386;53.082;8.816;2023-04-06T04:58:20;101790.53;;;8.80;40.63
64889;BME280;51386;53.082;8.816;2023-04-06T05:00:47;101790.53;;;8.80;40.55
64889;BME280;51386;53.082;8.816;2023-04-06T05:03:22;101783.63;;;8.79;40.66
64889;BME280;51386;53.082;8.816;2023-04-06T05:05:50;101788.59;;;8.82;40.74
64889;BME280;51386;53.082;8.816;2023-04-06T05:08:18;101781.97;;;8.78;40.55
64889;BME280;51386;53.082;8.816;2023-04-06T05:10:45;101781.00;;;8.79;40.35
64889;BME280;51386;53.082;8.816;2023-04-06T05:13:13;101783.63;;;8.79;41.05
64889;BME280;51386;53.082;8.816;2023-04-06T05:15:40;101781.44;;;8.84;40.90
64889;BME280;51386;53.082;8.816;2023-04-06T05:18:08;101790.53;;;8.90;40.68
64889;BME280;51386;53.082;8.816;2023-04-06T05:20:36;101788.59;;;8.92;40.76
64889;BME280;51386;53.082;8.816;2023-04-06T05:23:03;101787.50;;;8.94;40.66
64889;BME280;51386;53.082;8.816;2023-04-06T05:25:32;101778.66;;;8.95;40.90
64889;BME280;51386;53.082;8.816;2023-04-06T05:27:59;101782.66;;;8.99;40.32
64889;BME280;51386;53.082;8.816;2023-04-06T05:30:26;101785.72;;;9.04;40.45
64889;BME280;51386;53.082;8.816;2023-04-06T05:32:54;101779.19;;;9.08;40.24
64889;BME280;51386;53.082;8.816;2023-04-06T05:35:21;101778.94;;;9.11;40.35
64889;BME280;51386;53.082;8.816;2023-04-06T05:37:49;101778.38;;;9.17;40.35
64889;BME280;51386;53.082;8.816;2023-04-06T05:40:16;101773.81;;;9.19;40.10
64889;BME280;51386;53.082;8.816;2023-04-06T05:42:44;101775.34;;;9.22;39.57
64889;BME280;51386;53.082;8.816;2023-04-06T05:45:12;101772.56;;;9.23;39.96
64889;BME280;51386;53.082;8.816;2023-04-06T05:47:44;101775.19;;;9.23;39.66
64889;BME280;51386;53.082;8.816;2023-04-06T05:50:12;101780.72;;;9.20;39.42
64889;BME280;51386;53.082;8.816;2023-04-06T05:52:39;101775.34;;;9.22;39.26
64889;BME280;51386;53.082;8.816;2023-04-06T05:55:10;101772.56;;;9.23;39.50
64889;BME280;51386;53.082;8.816;2023-04-06T05:57:37;101775.03;;;9.25;39.25
64889;BME280;51386;53.082;8.816;2023-04-06T06:00:08;101768.69;;;9.27;39.26
64889;BME280;51386;53.082;8.816;2023-04-06T06:02:36;101775.31;;;9.31;39.35
64889;BME280;51386;53.082;8.816;2023-04-06T06:05:04;101773.91;;;9.37;39.46
64889;BME280;51386;53.082;8.816;2023-04-06T06:07:31;101776.97;;;9.32;39.33
64889;BME280;51386;53.082;8.816;2023-04-06T06:09:58;101776.97;;;9.32;39.46
64889;BME280;51386;53.082;8.816;2023-04-06T06:12:25;101770.06;;;9.31;39.24
64889;BME280;51386;53.082;8.816;2023-04-06T06:14:52;101772.69;;;9.31;39.50
64889;BME280;51386;53.082;8.816;2023-04-06T06:17:21;101781.25;;;9.33;39.16
64889;BME280;51386;53.082;8.816;2023-04-06T06:19:48;101779.16;;;9.37;39.39
64889;BME280;51386;53.082;8.816;2023-04-06T06:22:15;101779.47;;;9.43;39.00
64889;BME280;51386;53.082;8.816;2023-04-06T06:24:42;101777.22;;;9.48;39.17
64889;BME280;51386;53.082;8.816;2023-04-06T06:27:09;101782.44;;;9.58;39.04
64889;BME280;51386;53.082;8.816;2023-04-06T06:29:36;101781.88;;;9.64;39.02
64889;BME280;51386;53.082;8.816;2023-04-06T06:32:03;101773.56;;;9.69;38.56
64889;BME280;51386;53.082;8.816;2023-04-06T06:34:31;101775.53;;;9.67;38.11
64889;BME280;51386;53.082;8.816;2023-04-06T06:36:59;101777.75;;;9.62;38.86
64889;BME280;51386;53.082;8.816;2023-04-06T06:39:26;101772.75;;;9.59;38.72
64889;BME280;51386;53.082;8.816;2023-04-06T06:41:53;101769.47;;;9.57;38.69
64889;BME280;51386;53.082;8.816;2023-04-06T06:44:21;101772.75;;;9.59;38.99
64889;BME280;51386;53.082;8.816;2023-04-06T06:46:48;101781.06;;;9.64;38.78
64889;BME280;51386;53.082;8.816;2023-04-06T06:49:16;101771.34;;;9.74;38.88
64889;BME280;51386;53.082;8.816;2023-04-06T06:51:45;101772.66;;;9.87;38.30
64889;BME280;51386;53.082;8.816;2023-04-06T06:54:13;101769.56;;;10.01;38.59
64889;BME280;51386;53.082;8.816;2023-04-06T06:56:40;101765.97;;;10.12;38.18
64889;BME280;51386;53.082;8.816;2023-04-06T06:59:07;101777.56;;;10.19;37.83
64889;BME280;51386;53.082;8.816;2023-04-06T07:01:35;101767.88;;;10.19;37.91
64889;BME280;51386;53.082;8.816;2023-04-06T07:04:03;101769.22;;;10.24;38.20
64889;BME280;51386;53.082;8.816;2023-04-06T07:06:31;101761.94;;;10.35;38.25
64889;BME280;51386;53.082;8.816;2023-04-06T07:08:59;101761.94;;;10.35;38.28
64889;BME280;51386;53.082;8.816;2023-04-06T07:11:26;101764.06;;;10.49;38.12
64889;BME280;51386;53.082;8.816;2023-04-06T07:13:53;101762.75;;;10.80;37.12
64889;BME280;51386;53.082;8.816;2023-04-06T07:16:20;101762.72;;;11.16;35.96
64889;BME280;51386;53.082;8.816;2023-04-06T07:18:47;101765.84;;;11.37;35.96
64889;BME280;51386;53.082;8.816;2023-04-06T07:21:14;101763.66;;;11.58;35.44
64889;BME280;51386;53.082;8.816;2023-04-06T07:23:42;101757.25;;;11.86;35.32
64889;BME280;51386;53.082;8.816;2023-04-06T07:26:11;101748.81;;;12.16;34.56
64889;BME280;51386;53.082;8.816;2023-04-06T07:28:37;101750.06;;;12.62;33.81
64889;BME280;51386;53.082;8.816;2023-04-06T07:31:05;101744.84;;;13.11;32.84
64889;BME280;51386;53.082;8.816;2023-04-06T07:33:32;101744.09;;;13.73;32.58
64889;BME280;51386;53.082;8.816;2023-04-06T07:35:59;101744.63;;;14.38;31.08
64889;BME280;51386;53.082;8.816;2023-04-06T07:38:26;101743.69;;;14.62;30.22
64889;BME280;51386;53.082;8.816;2023-04-06T07:40:54;101741.53;;;15.03;30.06
64889;BME280;51386;53.082;8.816;2023-04-06T07:43:22;101744.63;;;15.66;29.95
64889;BME280;51386;53.082;8.816;2023-04-06T07:45:49;101730.91;;;16.27;28.63
64889;BME280;51386;53.082;8.816;2023-04-06T07:48:16;101735.31;;;16.99;28.41
64889;BME280;51386;53.082;8.816;2023-04-06T07:50:43;101738.22;;;17.59;26.73
64889;BME280;51386;53.082;8.816;2023-04-06T07:53:10;101734.78;;;17.58;26.57
64889;BME280;51386;53.082;8.816;2023-04-06T07:55:37;101738.94;;;17.74;26.70
64889;BME280;51386;53.082;8.816;2023-04-06T07:58:04;101730.88;;;18.02;26.38
64889;BME280;51386;53.082;8.816;2023-04-06T08:00:33;101726.91;;;18.25;26.08
64889;BME280;51386;53.082;8.816;2023-04-06T08:03:00;101722.94;;;18.75;25.91
64889;BME280;51386;53.082;8.816;2023-04-06T08:05:27;101731.97;;;19.20;25.02
64889;BME280;51386;53.082;8.816;2023-04-06T08:07:54;101729.06;;;19.61;24.50
64889;BME280;51386;53.082;8.816;2023-04-06T08:10:21;101721.03;;;20.12;24.48
64889;BME280;51386;53.082;8.816;2023-04-06T08:12:48;101712.81;;;20.58;22.97
64889;BME280;51386;53.082;8.816;2023-04-06T08:15:15;101717.66;;;20.99;23.52
64889;BME280;51386;53.082;8.816;2023-04-06T08:17:46;101719.88;;;21.26;22.72
64889;BME280;51386;53.082;8.816;2023-04-06T08:20:13;101722.44;;;21.76;22.80
64889;BME280;51386;53.082;8.816;2023-04-06T08:22:40;101713.97;;;22.15;21.95
64889;BME280;51386;53.082;8.816;2023-04-06T08:25:07;101714.91;;;22.50;20.98
64889;BME280;51386;53.082;8.816;2023-04-06T08:27:34;101717.16;;;22.53;20.88
64889;BME280;51386;53.082;8.816;2023-04-06T08:30:02;101712.81;;;22.94;21.25
64889;BME280;51386;53.082;8.816;2023-04-06T08:32:29;101714.94;;;23.38;20.61
64889;BME280;51386;53.082;8.816;2023-04-06T08:34:58;101711.88;;;23.69;20.17
64889;BME280;51386;53.082;8.816;2023-04-06T08:37:27;101712.94;;;23.96;20.22
64889;BME280;51386;53.082;8.816;2023-04-06T08:39:54;101708.25;;;24.43;19.60
64889;BME280;51386;53.082;8.816;2023-04-06T08:42:26;101708.81;;;24.45;19.31
64889;BME280;51386;53.082;8.816;2023-04-06T08:44:55;101700.22;;;24.32;18.82
64889;BME280;51386;53.082;8.816;2023-04-06T08:47:22;101695.63;;;23.64;19.53
64889;BME280;51386;53.082;8.816;2023-04-06T08:49:52;101697.16;;;22.90;20.25
64889;BME280;51386;53.082;8.816;2023-04-06T08:52:22;101698.56;;;23.05;20.53
64889;BME280;51386;53.082;8.816;2023-04-06T08:54:50;101697.41;;;23.47;20.18
64889;BME280;51386;53.082;8.816;2023-04-06T08:57:19;101696.16;;;23.78;19.65
64889;BME280;51386;53.082;8.816;2023-04-06T08:59:48;101692.66;;;23.89;19.53
64889;BME280;51386;53.082;8.816;2023-04-06T09:02:18;101689.75;;;24.18;19.52
64889;BME280;51386;53.082;8.816;2023-04-06T09:04:47;101704.34;;;24.51;19.04
64889;BME280;51386;53.082;8.816;2023-04-06T09:07:15;101701.91;;;24.66;19.03
64889;BME280;51386;53.082;8.816;2023-04-06T09:09:43;101707.50;;;24.93;19.08
64889;BME280;51386;53.082;8.816;2023-04-06T09:12:23;101696.13;;;24.74;18.61
64889;BME280;51386;53.082;8.816;2023-04-06T09:14:51;101693.53;;;24.96;18.97
64889;BME280;51386;53.082;8.816;2023-04-06T09:17:21;101695.81;;;25.42;18.00
64889;BME280;51386;53.082;8.816;2023-04-06T09:19:49;101695.66;;;25.48;18.41
64889;BME280;51386;53.082;8.816;2023-04-06T09:22:17;101694.00;;;25.64;17.79
64889;BME280;51386;53.082;8.816;2023-04-06T09:24:49;101696.81;;;25.96;18.36
64889;BME280;51386;53.082;8.816;2023-04-06T09:27:18;101685.28;;;26.27;18.16
64889;BME280;51386;53.082;8.816;2023-04-06T09:30:04;101690.94;;;27.21;16.81
64889;BME280;51386;53.082;8.816;2023-04-06T09:32:32;101693.00;;;27.09;16.88
64889;BME280;51386;53.082;8.816;2023-04-06T09:35:06;101688.81;;;26.91;17.09
64889;BME280;51386;53.082;8.816;2023-04-06T09:37:34;101679.81;;;27.12;17.28
64889;BME280;51386;53.082;8.816;2023-04-06T09:40:07;101683.34;;;27.70;16.37
64889;BME280;51386;53.082;8.816;2023-04-06T09:42:35;101674.72;;;27.78;16.27
64889;BME280;51386;53.082;8.816;2023-04-06T09:45:03;101677.31;;;28.14;16.45
64889;BME280;51386;53.082;8.816;2023-04-06T09:47:32;101685.44;;;28.30;15.68
64889;BME280;51386;53.082;8.816;2023-04-06T09:50:00;101674.28;;;28.06;15.89
64889;BME280;51386;53.082;8.816;2023-04-06T09:52:32;101675.38;;;28.10;16.08
64889;BME280;51386;53.082;8.816;2023-04-06T09:55:06;101673.56;;;28.61;15.66
64889;BME280;51386;53.082;8.816;2023-04-06T09:57:45;101678.41;;;28.99;15.91
64889;BME280;51386;53.082;8.816;2023-04-06T10:00:22;101677.91;;;28.62;15.34
64889;BME280;51386;53.082;8.816;2023-04-06T10:02:56;101680.59;;;28.52;15.73
64889;BME280;51386;53.082;8.816;2023-04-06T10:05:35;101678.94;;;28.46;15.26
64889;BME280;51386;53.082;8.816;2023-04-06T10:08:09;101678.38;;;28.39;15.46
64889;BME280;51386;53.082;8.816;2023-04-06T10:10:38;101677.91;;;28.62;15.13
64889;BME280;51386;53.082;8.816;2023-04-06T10:13:07;101678.94;;;29.06;15.11
64889;BME280;51386;53.082;8.816;2023-04-06T10:15:34;101672.69;;;29.16;15.04
64889;BME280;51386;53.082;8.816;2023-04-06T10:18:02;101673.88;;;29.74;14.87
64889;BME280;51386;53.082;8.816;2023-04-06T10:20:38;101675.00;;;30.55;13.80
64889;BME280;51386;53.082;8.816;2023-04-06T10:23:12;101669.69;;;30.40;14.28
64889;BME280;51386;53.082;8.816;2023-04-06T10:25:55;101669.88;;;30.05;14.32
64889;BME280;51386;53.082;8.816;2023-04-06T10:28:23;101676.06;;;29.67;14.49
64889;BME280;51386;53.082;8.816;2023-04-06T10:30:58;101671.31;;;29.28;14.87
64889;BME280;51386;53.082;8.816;2023-04-06T10:33:26;101665.06;;;29.18;15.25
64889;BME280;51386;53.082;8.816;2023-04-06T10:35:54;101675.16;;;28.97;15.10
64889;BME280;51386;53.082;8.816;2023-04-06T10:38:33;101662.69;;;28.56;15.47
64889;BME280;51386;53.082;8.816;2023-04-06T10:41:07;101670.72;;;27.90;15.73
64889;BME280;51386;53.082;8.816;2023-04-06T10:43:36;101662.00;;;27.78;15.96
64889;BME280;51386;53.082;8.816;2023-04-06T10:46:06;101658.19;;;27.69;16.30
64889;BME280;51386;53.082;8.816;2023-04-06T10:48:38;101657.63;;;27.62;16.56
64889;BME280;51386;53.082;8.816;2023-04-06T10:51:11;101654.91;;;27.67;15.98
64889;BME280;51386;53.082;8.816;2023-04-06T10:53:41;101666.66;;;27.31;15.99
64889;BME280;51386;53.082;8.816;2023-04-06T10:56:13;101664.63;;;27.11;16.59
64889;BME280;51386;53.082;8.816;2023-04-06T10:58:44;101656.88;;;27.25;16.86
64889;BME280;51386;53.082;8.816;2023-04-06T11:01:14;101651.72;;;27.75;16.50
64889;BME280;51386;53.082;8.816;2023-04-06T11:03:45;101651.78;;;27.95;16.60
64889;BME280;51386;53.082;8.816;2023-04-06T11:06:19;101655.59;;;28.04;16.22
64889;BME280;51386;53.082;8.816;2023-04-06T11:08:47;101644.25;;;28.23;16.03
64889;BME280;51386;53.082;8.816;2023-04-06T11:11:18;101638.81;;;28.12;16.45
64889;BME280;51386;53.082;8.816;2023-04-06T11:13:49;101628.75;;;27.88;16.16
64889;BME280;51386;53.082;8.816;2023-04-06T11:16:18;101638.78;;;27.97;16.36
64889;BME280;51386;53.082;8.816;2023-04-06T11:18:51;101639.09;;;28.41;15.82
64889;BME280;51386;53.082;8.816;2023-04-06T11:21:19;101636.13;;;28.02;15.42
64889;BME280;51386;53.082;8.816;2023-04-06T11:23:47;101630.69;;;28.12;15.74
64889;BME280;51386;53.082;8.816;2023-04-06T11:26:16;101638.31;;;28.36;15.75
64889;BME280;51386;53.082;8.816;2023-04-06T11:28:43;101633.16;;;28.39;15.67
64889;BME280;51386;53.082;8.816;2023-04-06T11:31:11;101631.78;;;28.06;15.99
64889;BME280;51386;53.082;8.816;2023-04-06T11:33:38;101631.78;;;28.06;15.67
64889;BME280;51386;53.082;8.816;2023-04-06T11:36:07;101629.53;;;27.78;15.76
64889;BME280;51386;53.082;8.816;2023-04-06T11:38:39;101621.91;;;27.70;15.42
64889;BME280;51386;53.082;8.816;2023-04-06T11:41:06;101612.31;;;26.85;16.08
64889;BME280;51386;53.082;8.816;2023-04-06T11:43:35;101608.47;;;26.81;16.40
64889;BME280;51386;53.082;8.816;2023-04-06T11:46:04;101603.34;;;27.32;15.79
64889;BME280;51386;53.082;8.816;2023-04-06T11:48:44;101614.84;;;27.59;15.64
64889;BME280;51386;53.082;8.816;2023-04-06T11:51:12;101594.34;;;27.98;15.12
64889;BME280;51386;53.082;8.816;2023-04-06T11:53:44;101600.66;;;27.37;14.56
64889;BME280;51386;53.082;8.816;2023-04-06T11:56:26;101589.50;;;27.18;15.02
64889;BME280;51386;53.082;8.816;2023-04-06T11:58:57;101597.09;;;27.21;15.07
64889;BME280;51386;53.082;8.816;2023-04-06T12:01:26;101607.31;;;27.09;15.04
64889;BME280;51386;53.082;8.816;2023-04-06T12:03:53;101599.44;;;27.03;15.08
64889;BME280;51386;53.082;8.816;2023-04-06T12:06:21;101595.78;;;27.34;15.19
64889;BME280;51386;53.082;8.816;2023-04-06T12:08:48;101585.94;;;27.65;15.42
64889;BME280;51386;53.082;8.816;2023-04-06T12:11:15;101579.19;;;27.87;14.97
64889;BME280;51386;53.082;8.816;2023-04-06T12:13:42;101587.34;;;27.97;14.56
64889;BME280;51386;53.082;8.816;2023-04-06T12:16:10;101579.16;;;27.77;14.46
64889;BME280;51386;53.082;8.816;2023-04-06T12:18:37;101582.78;;;27.26;14.78
64889;BME280;51386;53.082;8.816;2023-04-06T12:21:06;101580.56;;;27.18;14.89
64889;BME280;51386;53.082;8.816;2023-04-06T12:23:35;101569.88;;;27.38;14.76
64889;BME280;51386;53.082;8.816;2023-04-06T12:26:03;101583.00;;;27.96;14.51
64889;BME280;51386;53.082;8.816;2023-04-06T12:28:30;101564.09;;;28.11;14.52
64889;BME280;51386;53.082;8.816;2023-04-06T12:30:57;101567.78;;;27.70;14.32
64889;BME280;51386;53.082;8.816;2023-04-06T12:33:26;101558.91;;;27.08;14.23
64889;BME280;51386;53.082;8.816;2023-04-06T12:35:53;101567.94;;;26.76;14.91
64889;BME280;51386;53.082;8.816;2023-04-06T12:38:20;101573.09;;;26.46;15.20
64889;BME280;51386;53.082;8.816;2023-04-06T12:40:47;101578.97;;;25.80;15.79
64889;BME280;51386;53.082;8.816;2023-04-06T12:43:14;101563.84;;;25.52;15.87
64889;BME280;51386;53.082;8.816;2023-04-06T12:45:41;101567.22;;;25.64;16.05
64889;BME280;51386;53.082;8.816;2023-04-06T12:48:08;101567.69;;;26.46;14.92
64889;BME280;51386;53.082;8.816;2023-04-06T12:50:36;101560.53;;;27.09;14.58
64889;BME280;51386;53.082;8.816;2023-04-06T12:53:04;101569.19;;;27.11;14.91
64889;BME280;51386;53.082;8.816;2023-04-06T12:55:31;101555.88;;;26.52;14.76
64889;BME280;51386;53.082;8.816;2023-04-06T12:58:01;101552.88;;;26.12;14.92
64889;BME280;51386;53.082;8.816;2023-04-06T13:00:31;101551.31;;;26.21;15.51